createdAt,value
2019-02-24T00:02:08.519Z,-0.87
2019-02-24T00:04:37.605Z,-0.94
2019-02-24T00:07:06.702Z,-1.00
2019-02-24T00:09:35.797Z,-1.24
2019-02-24T00:12:04.949Z,-1.42
2019-02-24T00:14:34.111Z,-1.40
2019-02-24T00:17:03.264Z,-1.22
2019-02-24T00:19:32.185Z,-1.40
2019-02-24T00:22:01.293Z,-1.13
2019-02-24T00:24:30.463Z,-1.24
2019-02-24T00:26:59.545Z,-1.32
2019-02-24T00:29:28.628Z,-1.32
2019-02-24T00:31:57.742Z,-1.13
2019-02-24T00:34:26.844Z,-1.21
2019-02-24T00:36:55.957Z,-1.23
2019-02-24T00:39:25.034Z,-1.41
2019-02-24T00:41:54.165Z,-1.34
2019-02-24T00:44:23.175Z,-1.39
2019-02-24T00:46:52.290Z,-1.52
2019-02-24T00:49:21.285Z,-1.52
2019-02-24T00:51:50.532Z,-1.41
2019-02-24T00:54:19.624Z,-1.39
2019-02-24T00:56:48.697Z,-1.32
2019-02-24T00:59:17.869Z,-1.31
2019-02-24T01:01:47.005Z,-1.40
2019-02-24T01:04:16.479Z,-1.40
2019-02-24T01:06:45.670Z,-1.43
2019-02-24T01:09:14.773Z,-1.47
2019-02-24T01:11:43.895Z,-1.58
2019-02-24T01:14:12.996Z,-1.53
2019-02-24T01:16:42.081Z,-1.44
2019-02-24T01:19:11.184Z,-1.37
2019-02-24T01:21:40.225Z,-1.49
2019-02-24T01:24:09.248Z,-1.56
2019-02-24T01:26:38.329Z,-1.71
2019-02-24T01:29:07.348Z,-1.82
2019-02-24T01:31:36.429Z,-1.72
2019-02-24T01:34:05.535Z,-1.67
2019-02-24T01:36:34.590Z,-1.64
2019-02-24T01:39:04.148Z,-1.85
2019-02-24T01:41:33.418Z,-1.85
2019-02-24T01:44:02.642Z,-1.73
2019-02-24T01:46:31.630Z,-1.83
2019-02-24T01:49:00.731Z,-1.73
2019-02-24T01:51:29.903Z,-1.67
2019-02-24T01:53:59.012Z,-1.74
2019-02-24T01:56:29.065Z,-1.59
2019-02-24T01:58:58.078Z,-1.70
2019-02-24T02:01:27.215Z,-1.84
2019-02-24T02:03:56.186Z,-1.84
2019-02-24T02:06:25.288Z,-1.87
2019-02-24T02:08:54.375Z,-1.95
2019-02-24T02:11:23.508Z,-1.88
2019-02-24T02:13:52.595Z,-1.84
2019-02-24T02:16:21.663Z,-1.80
2019-02-24T02:18:50.753Z,-1.88
2019-02-24T02:21:19.815Z,-1.95
2019-02-24T02:23:48.930Z,-1.94
2019-02-24T02:26:17.940Z,-2.00
2019-02-24T02:28:47.017Z,-1.83
2019-02-24T02:31:16.180Z,-2.02
2019-02-24T02:33:45.317Z,-2.26
2019-02-24T02:36:14.434Z,-2.13
2019-02-24T02:38:43.567Z,-1.87
2019-02-24T02:41:12.854Z,-1.87
2019-02-24T02:43:42.050Z,-1.91
2019-02-24T02:46:11.150Z,-2.05
2019-02-24T02:48:40.633Z,-2.14
2019-02-24T02:51:10.197Z,-2.26
2019-02-24T02:53:39.355Z,-2.02
2019-02-24T02:56:08.393Z,-2.10
2019-02-24T02:58:37.546Z,-1.92
2019-02-24T03:01:06.659Z,-2.12
2019-02-24T03:03:35.797Z,-2.10
2019-02-24T03:06:16.305Z,-2.09
2019-02-24T03:08:46.423Z,-2.07
2019-02-24T03:11:16.206Z,-2.11
2019-02-24T03:13:45.349Z,-2.07
2019-02-24T03:16:16.162Z,-2.24
2019-02-24T03:18:45.268Z,-2.19
2019-02-24T03:21:14.377Z,-2.05
2019-02-24T03:23:43.522Z,-2.23
2019-02-24T03:26:12.625Z,-2.27
2019-02-24T03:28:41.755Z,-2.22
2019-02-24T03:31:10.868Z,-2.14
2019-02-24T03:33:40.042Z,-2.21
2019-02-24T03:36:09.199Z,-2.17
2019-02-24T03:38:38.416Z,-2.04
2019-02-24T03:41:07.523Z,-2.13
2019-02-24T03:43:36.680Z,-2.15
2019-02-24T03:46:05.794Z,-2.01
2019-02-24T03:48:34.924Z,-2.00
2019-02-24T03:51:04.057Z,-1.97
2019-02-24T03:53:33.387Z,-2.02
2019-02-24T03:56:02.497Z,-2.03
2019-02-24T03:58:31.662Z,-2.19
2019-02-24T04:01:00.771Z,-2.07
2019-02-24T04:03:29.992Z,-2.18
2019-02-24T04:05:59.149Z,-2.34
2019-02-24T04:08:28.275Z,-2.33
2019-02-24T04:10:57.522Z,-2.47
2019-02-24T04:13:26.620Z,-2.53
2019-02-24T04:15:55.780Z,-2.38
2019-02-24T04:18:24.908Z,-2.25
2019-02-24T04:20:54.045Z,-2.25
2019-02-24T04:23:23.391Z,-2.26
2019-02-24T04:25:53.689Z,-2.30
2019-02-24T04:28:23.326Z,-2.27
2019-02-24T04:30:55.934Z,-2.36
2019-02-24T04:33:25.062Z,-2.30
2019-02-24T04:35:54.219Z,-2.26
2019-02-24T04:38:23.576Z,-2.34
2019-02-24T04:40:52.814Z,-2.38
2019-02-24T04:43:21.981Z,-2.46
2019-02-24T04:45:51.130Z,-2.65
2019-02-24T04:48:20.235Z,-2.60
2019-02-24T04:50:49.372Z,-2.34
2019-02-24T04:53:18.598Z,-2.24
2019-02-24T04:55:47.748Z,-2.30
2019-02-24T04:58:16.868Z,-2.38
2019-02-24T05:00:46.061Z,-2.44
2019-02-24T05:03:15.124Z,-2.63
2019-02-24T05:05:44.266Z,-2.61
2019-02-24T05:08:13.372Z,-2.39
2019-02-24T05:10:42.524Z,-2.44
2019-02-24T05:13:11.643Z,-2.50
2019-02-24T05:15:40.801Z,-2.59
2019-02-24T05:18:09.895Z,-2.56
2019-02-24T05:20:39.036Z,-2.53
2019-02-24T05:23:08.186Z,-2.39
2019-02-24T05:25:37.328Z,-2.53
2019-02-24T05:28:06.510Z,-2.42
2019-02-24T05:30:35.663Z,-2.50
2019-02-24T05:33:04.873Z,-2.48
2019-02-24T05:35:33.997Z,-2.47
2019-02-24T05:38:03.125Z,-2.47
2019-02-24T05:40:32.163Z,-2.35
2019-02-24T05:43:01.310Z,-2.32
2019-02-24T05:45:30.565Z,-2.34
2019-02-24T05:47:59.711Z,-2.34
2019-02-24T05:50:28.858Z,-2.43
2019-02-24T05:52:57.968Z,-2.48
2019-02-24T05:55:27.165Z,-2.54
2019-02-24T05:57:56.259Z,-2.84
2019-02-24T06:00:25.405Z,-2.87
2019-02-24T06:02:54.679Z,-2.75
2019-02-24T06:05:23.847Z,-2.68
2019-02-24T06:07:52.985Z,-2.56
2019-02-24T06:10:22.219Z,-2.48
2019-02-24T06:12:51.395Z,-2.60
2019-02-24T06:15:20.594Z,-2.56
2019-02-24T06:17:49.734Z,-2.56
2019-02-24T06:20:19.384Z,-2.64
2019-02-24T06:22:49.156Z,-2.68
2019-02-24T06:25:18.561Z,-2.80
2019-02-24T06:27:47.627Z,-2.63
2019-02-24T06:30:16.827Z,-2.62
2019-02-24T06:32:46.022Z,-2.51
2019-02-24T06:35:15.196Z,-2.51
2019-02-24T06:37:44.404Z,-2.53
2019-02-24T06:40:13.624Z,-2.45
2019-02-24T06:42:42.839Z,-2.47
2019-02-24T06:45:12.292Z,-2.41
2019-02-24T06:47:41.599Z,-2.35
2019-02-24T06:50:11.857Z,-2.50
2019-02-24T06:52:41.016Z,-2.43
2019-02-24T06:55:11.434Z,-2.42
2019-02-24T06:57:40.815Z,-2.23
2019-02-24T07:00:14.214Z,-2.22
2019-02-24T07:02:42.450Z,-2.25
2019-02-24T07:05:11.647Z,-2.21
2019-02-24T07:07:40.775Z,-2.21
2019-02-24T07:10:10.031Z,-2.07
2019-02-24T07:12:39.257Z,-1.97
2019-02-24T07:15:09.380Z,-2.03
2019-02-24T07:17:39.518Z,-2.06
2019-02-24T07:20:09.111Z,-1.89
2019-02-24T07:22:38.541Z,-1.83
2019-02-24T07:25:08.301Z,-1.77
2019-02-24T07:27:37.837Z,-1.66
2019-02-24T07:30:08.178Z,-1.68
2019-02-24T07:32:37.426Z,-1.63
2019-02-24T07:35:06.746Z,-1.48
2019-02-24T07:37:36.023Z,-1.30
2019-02-24T07:40:06.033Z,-1.14
2019-02-24T07:42:35.292Z,-1.25
2019-02-24T07:45:04.571Z,-1.16
2019-02-24T07:47:33.894Z,-1.15
2019-02-24T07:50:03.032Z,-0.92
2019-02-24T07:52:32.328Z,-0.88
2019-02-24T07:55:01.733Z,-0.73
2019-02-24T07:57:30.934Z,-0.57
2019-02-24T08:00:00.057Z,-0.46
2019-02-24T08:02:29.417Z,-0.34
2019-02-24T08:04:58.903Z,-0.26
2019-02-24T08:07:28.064Z,-0.20
2019-02-24T08:09:57.197Z,-0.09
2019-02-24T08:12:26.471Z,0.07
2019-02-24T08:14:55.577Z,0.20
2019-02-24T08:17:26.474Z,0.36
2019-02-24T08:19:55.583Z,0.47
2019-02-24T08:22:25.103Z,0.59
2019-02-24T08:24:54.208Z,0.72
2019-02-24T08:27:23.336Z,0.83
2019-02-24T08:29:52.458Z,0.99
2019-02-24T08:32:21.787Z,1.23
2019-02-24T08:34:52.912Z,1.28
2019-02-24T08:37:21.746Z,1.52
2019-02-24T08:39:50.886Z,1.61
2019-02-24T08:42:20.175Z,1.61
2019-02-24T08:44:49.274Z,1.73
2019-02-24T08:47:18.378Z,1.84
2019-02-24T08:49:48.193Z,1.88
2019-02-24T08:52:17.292Z,1.96
2019-02-24T08:54:46.348Z,2.03
2019-02-24T08:57:15.555Z,2.17
2019-02-24T08:59:44.744Z,2.20
2019-02-24T09:02:33.866Z,2.30
2019-02-24T09:04:52.530Z,2.37
2019-02-24T09:07:22.076Z,2.54
2019-02-24T09:09:51.207Z,2.52
2019-02-24T09:12:20.411Z,2.60
2019-02-24T09:14:49.496Z,2.64
2019-02-24T09:17:18.611Z,2.67
2019-02-24T09:19:47.771Z,2.68
2019-02-24T09:22:16.892Z,2.78
2019-02-24T09:24:46.190Z,3.10
2019-02-24T09:27:15.394Z,3.07
2019-02-24T09:29:44.635Z,3.12
2019-02-24T09:32:13.889Z,3.17
2019-02-24T09:34:43.115Z,3.27
2019-02-24T09:37:12.217Z,3.36
2019-02-24T09:39:41.297Z,3.50
2019-02-24T09:42:10.408Z,3.56
2019-02-24T09:44:39.550Z,3.68
2019-02-24T09:47:08.839Z,3.73
2019-02-24T09:49:37.997Z,3.82
2019-02-24T09:52:07.203Z,3.92
2019-02-24T09:54:36.349Z,3.99
2019-02-24T09:57:05.530Z,3.99
2019-02-24T09:59:34.697Z,4.08
2019-02-24T10:02:03.891Z,4.14
2019-02-24T10:04:33.143Z,4.17
2019-02-24T10:07:02.316Z,4.28
2019-02-24T10:09:34.961Z,4.47
2019-02-24T10:12:09.745Z,4.54
2019-02-24T10:14:42.130Z,4.66
2019-02-24T10:17:28.541Z,4.81
2019-02-24T10:20:02.928Z,4.98
2019-02-24T10:22:33.483Z,4.98
2019-02-24T10:25:02.518Z,5.09
2019-02-24T10:27:31.736Z,5.24
2019-02-24T10:30:01.075Z,5.37
2019-02-24T10:32:30.638Z,5.48
2019-02-24T10:34:59.767Z,5.55
2019-02-24T10:37:36.278Z,5.63
2019-02-24T10:40:07.256Z,5.70
2019-02-24T10:42:42.304Z,5.71
2019-02-24T10:45:12.451Z,5.84
2019-02-24T10:47:44.007Z,6.07
2019-02-24T10:50:15.970Z,6.16
2019-02-24T10:52:45.568Z,6.43
2019-02-24T10:55:15.014Z,6.63
2019-02-24T10:57:48.728Z,6.67
2019-02-24T11:00:20.130Z,6.61
2019-02-24T11:02:51.502Z,6.66
2019-02-24T11:05:20.715Z,6.70
2019-02-24T11:07:49.796Z,6.81
2019-02-24T11:10:19.282Z,6.89
2019-02-24T11:12:48.373Z,6.92
2019-02-24T11:15:19.836Z,7.09
2019-02-24T11:17:49.049Z,7.34
2019-02-24T11:20:18.208Z,7.47
2019-02-24T11:22:49.687Z,7.42
2019-02-24T11:25:18.756Z,7.53
2019-02-24T11:27:48.026Z,7.65
2019-02-24T11:30:17.328Z,7.50
2019-02-24T11:32:48.944Z,7.59
2019-02-24T11:35:27.008Z,7.64
2019-02-24T11:37:57.416Z,7.77
2019-02-24T11:40:29.873Z,7.77
2019-02-24T11:43:01.219Z,7.67
2019-02-24T11:45:30.334Z,7.67
2019-02-24T11:47:59.550Z,7.71
2019-02-24T11:50:31.517Z,7.70
2019-02-24T11:53:00.677Z,7.70
2019-02-24T11:55:34.300Z,7.66
2019-02-24T11:58:03.138Z,7.65
2019-02-24T12:00:37.647Z,7.96
2019-02-24T12:03:12.444Z,7.90
2019-02-24T12:05:46.474Z,7.90
2019-02-24T12:08:19.498Z,7.99
2019-02-24T12:10:57.675Z,7.94
2019-02-24T12:13:28.378Z,7.97
2019-02-24T12:16:04.331Z,7.95
2019-02-24T12:18:38.319Z,8.01
2019-02-24T12:21:11.000Z,8.11
2019-02-24T12:23:48.099Z,8.15
2019-02-24T12:26:19.848Z,8.14
2019-02-24T12:28:55.050Z,8.14
2019-02-24T12:31:58.023Z,8.28
2019-02-24T12:34:30.723Z,8.30
2019-02-24T12:37:07.360Z,8.42
2019-02-24T12:39:39.660Z,8.57
2019-02-24T12:42:22.238Z,8.58
2019-02-24T12:45:03.315Z,8.54
2019-02-24T12:51:26.639Z,8.59
2019-02-24T12:54:06.507Z,8.59
2019-02-24T12:56:46.726Z,8.67
2019-02-24T12:59:19.839Z,8.78
2019-02-24T13:01:49.910Z,8.78
2019-02-24T13:04:28.908Z,8.84
2019-02-24T13:07:04.389Z,8.97
2019-02-24T13:09:37.004Z,9.12
2019-02-24T13:12:15.459Z,9.16
2019-02-24T13:14:47.683Z,9.16
2019-02-24T13:17:23.452Z,9.21
2019-02-24T13:19:56.663Z,9.20
2019-02-24T13:22:35.835Z,9.37
2019-02-24T13:25:06.480Z,9.28
2019-02-24T13:27:35.587Z,9.44
2019-02-24T13:30:11.355Z,9.44
2019-02-24T13:32:40.599Z,9.66
2019-02-24T13:35:09.779Z,9.52
2019-02-24T13:37:38.867Z,9.59
2019-02-24T13:40:08.601Z,9.59
2019-02-24T13:42:37.620Z,9.71
2019-02-24T13:45:09.141Z,9.66
2019-02-24T13:47:38.242Z,9.71
2019-02-24T13:50:07.333Z,9.65
2019-02-24T13:52:36.551Z,9.83
2019-02-24T13:55:07.590Z,9.83
2019-02-24T13:57:36.658Z,9.92
2019-02-24T14:00:06.998Z,9.99
2019-02-24T14:02:37.181Z,9.95
2019-02-24T14:05:06.939Z,9.83
2019-02-24T14:07:37.866Z,9.83
2019-02-24T14:10:08.748Z,9.93
2019-02-24T14:12:38.096Z,10.03
2019-02-24T14:15:07.607Z,10.04
2019-02-24T14:17:36.610Z,9.98
2019-02-24T14:20:06.208Z,10.12
2019-02-24T14:22:36.628Z,10.19
2019-02-24T14:25:06.386Z,10.10
2019-02-24T14:27:36.072Z,10.02
2019-02-24T14:30:07.736Z,10.29
2019-02-24T14:32:37.911Z,10.18
2019-02-24T14:35:15.216Z,10.19
2019-02-24T14:37:47.650Z,10.33
2019-02-24T14:40:16.709Z,10.28
2019-02-24T14:42:45.907Z,10.12
2019-02-24T14:45:15.973Z,10.19
2019-02-24T14:47:47.297Z,10.17
2019-02-24T14:50:17.439Z,10.19
2019-02-24T14:52:50.238Z,10.13
2019-02-24T14:55:21.526Z,10.11
2019-02-24T14:57:50.785Z,10.17
2019-02-24T15:00:21.172Z,10.13
2019-02-24T15:02:58.151Z,10.15
2019-02-24T15:05:28.393Z,10.06
2019-02-24T15:07:58.145Z,10.04
2019-02-24T15:10:29.294Z,10.07
2019-02-24T15:12:58.282Z,9.99
2019-02-24T15:15:33.093Z,9.97
2019-02-24T15:17:58.650Z,10.11
2019-02-24T15:20:27.795Z,9.98
2019-02-24T15:22:56.911Z,10.00
2019-02-24T15:25:26.023Z,9.90
2019-02-24T15:27:55.361Z,9.83
2019-02-24T15:30:29.759Z,9.80
2019-02-24T15:33:09.072Z,9.68
2019-02-24T15:35:39.846Z,9.53
2019-02-24T15:38:13.789Z,9.28
2019-02-24T15:40:42.995Z,8.92
2019-02-24T15:43:12.284Z,8.78
2019-02-24T15:45:43.925Z,8.61
2019-02-24T15:48:14.783Z,8.69
2019-02-24T15:50:46.955Z,8.42
2019-02-24T15:53:18.306Z,8.42
2019-02-24T15:55:50.995Z,8.05
2019-02-24T15:58:20.268Z,8.04
2019-02-24T16:00:49.314Z,7.72
2019-02-24T16:03:21.618Z,7.72
2019-02-24T16:05:52.380Z,7.72
2019-02-24T16:08:21.583Z,7.36
2019-02-24T16:10:51.969Z,7.24
2019-02-24T16:13:25.304Z,7.12
2019-02-24T16:15:54.650Z,7.04
2019-02-24T16:18:25.865Z,6.94
2019-02-24T16:20:54.949Z,6.80
2019-02-24T16:23:24.406Z,6.58
2019-02-24T16:25:54.016Z,6.59
2019-02-24T16:28:24.622Z,6.46
2019-02-24T16:31:03.478Z,6.36
2019-02-24T16:33:32.635Z,6.23
2019-02-24T16:36:02.096Z,6.19
2019-02-24T16:38:31.290Z,6.09
2019-02-24T16:41:00.423Z,6.08
2019-02-24T16:43:29.480Z,5.97
2019-02-24T16:45:58.494Z,5.78
2019-02-24T16:48:27.566Z,5.64
2019-02-24T16:50:56.702Z,5.54
2019-02-24T16:53:25.886Z,5.52
2019-02-24T16:55:55.067Z,5.44
2019-02-24T16:58:24.184Z,5.26
2019-02-24T17:00:53.316Z,5.10
2019-02-24T17:03:22.709Z,4.92
2019-02-24T17:05:51.839Z,5.09
2019-02-24T17:08:21.234Z,5.05
2019-02-24T17:10:50.312Z,5.01
2019-02-24T17:13:19.359Z,4.75
2019-02-24T17:15:49.306Z,4.48
2019-02-24T17:18:19.718Z,4.51
2019-02-24T17:20:49.084Z,4.51
2019-02-24T17:23:20.277Z,4.31
2019-02-24T17:25:49.388Z,4.23
2019-02-24T17:28:18.615Z,4.25
2019-02-24T17:30:47.829Z,4.29
2019-02-24T17:33:17.285Z,4.13
2019-02-24T17:35:47.845Z,4.06
2019-02-24T17:38:16.991Z,3.89
2019-02-24T17:40:46.112Z,3.93
2019-02-24T17:43:15.129Z,3.89
2019-02-24T17:45:51.290Z,3.62
2019-02-24T17:48:20.346Z,3.48
2019-02-24T17:50:51.629Z,3.63
2019-02-24T17:53:20.808Z,3.72
2019-02-24T17:55:55.030Z,3.74
2019-02-24T17:58:24.204Z,3.70
2019-02-24T18:00:59.847Z,3.46
2019-02-24T18:03:39.054Z,3.23
2019-02-24T18:06:02.359Z,3.39
2019-02-24T18:08:31.709Z,3.34
2019-02-24T18:11:00.782Z,3.24
2019-02-24T18:13:29.925Z,3.16
2019-02-24T18:15:59.243Z,2.99
2019-02-24T18:18:32.994Z,2.86
2019-02-24T18:21:02.174Z,2.82
2019-02-24T18:23:31.269Z,2.89
2019-02-24T18:26:00.364Z,2.91
2019-02-24T18:28:29.506Z,2.91
2019-02-24T18:30:58.779Z,3.04
2019-02-24T18:33:27.804Z,3.12
2019-02-24T18:35:57.030Z,2.85
2019-02-24T18:38:27.977Z,2.57
2019-02-24T18:40:56.811Z,2.49
2019-02-24T18:43:25.890Z,2.68
2019-02-24T18:45:55.404Z,2.82
2019-02-24T18:48:24.533Z,2.78
2019-02-24T18:50:53.744Z,2.64
2019-02-24T18:53:24.945Z,2.61
2019-02-24T18:55:54.065Z,2.45
2019-02-24T18:58:23.238Z,2.45
2019-02-24T19:00:52.392Z,2.52
2019-02-24T19:03:21.467Z,2.56
2019-02-24T19:05:50.686Z,2.59
2019-02-24T19:08:19.824Z,2.46
2019-02-24T19:10:48.975Z,2.35
2019-02-24T19:13:18.113Z,2.31
2019-02-24T19:15:47.217Z,2.29
2019-02-24T19:18:16.375Z,2.24
2019-02-24T19:20:45.641Z,2.12
2019-02-24T19:23:14.984Z,1.99
2019-02-24T19:25:44.184Z,2.10
2019-02-24T19:28:13.334Z,2.10
2019-02-24T19:30:43.478Z,2.09
2019-02-24T19:33:12.752Z,1.98
2019-02-24T19:35:41.882Z,1.73
2019-02-24T19:38:11.004Z,1.88
2019-02-24T19:40:40.289Z,1.95
2019-02-24T19:43:09.490Z,1.93
2019-02-24T19:45:38.626Z,1.92
2019-02-24T19:48:08.264Z,1.95
2019-02-24T19:50:37.581Z,1.92
2019-02-24T19:53:06.767Z,1.80
2019-02-24T19:55:36.011Z,1.85
2019-02-24T19:58:05.305Z,1.91
2019-02-24T20:00:34.503Z,1.86
2019-02-24T20:03:03.804Z,1.65
2019-02-24T20:05:33.158Z,1.69
2019-02-24T20:08:02.383Z,1.70
2019-02-24T20:10:31.692Z,1.71
2019-02-24T20:13:00.869Z,1.58
2019-02-24T20:15:30.018Z,1.50
2019-02-24T20:17:59.086Z,1.57
2019-02-24T20:20:28.178Z,1.67
2019-02-24T20:22:57.426Z,1.66
2019-02-24T20:25:26.622Z,1.47
2019-02-24T20:27:55.738Z,1.43
2019-02-24T20:30:27.320Z,1.46
2019-02-24T20:32:57.030Z,1.47
2019-02-24T20:35:27.102Z,1.50
2019-02-24T20:37:56.175Z,1.49
2019-02-24T20:40:25.269Z,1.47
2019-02-24T20:42:54.389Z,1.27
2019-02-24T20:45:30.370Z,1.24
2019-02-24T20:47:59.422Z,1.20
2019-02-24T20:50:28.647Z,1.13
2019-02-24T20:52:57.821Z,1.12
2019-02-24T20:55:26.967Z,1.20
2019-02-24T20:57:56.343Z,1.10
2019-02-24T21:00:31.138Z,1.15
2019-02-24T21:03:01.506Z,1.20
2019-02-24T21:05:31.355Z,1.35
2019-02-24T21:08:00.761Z,1.31
2019-02-24T21:10:32.422Z,1.33
2019-02-24T21:13:04.724Z,1.37
2019-02-24T21:15:40.188Z,1.29
2019-02-24T21:18:40.352Z,0.98
2019-02-24T21:21:29.636Z,1.08
2019-02-24T21:23:58.751Z,1.22
2019-02-24T21:26:27.944Z,1.35
2019-02-24T21:28:57.058Z,1.39
2019-02-24T21:31:26.235Z,1.28
2019-02-24T21:33:55.317Z,1.33
2019-02-24T21:36:24.518Z,1.26
2019-02-24T21:38:53.626Z,1.29
2019-02-24T21:41:22.774Z,1.06
2019-02-24T21:44:07.136Z,1.02
2019-02-24T21:46:36.274Z,1.07
2019-02-24T21:49:05.402Z,1.14
2019-02-24T21:51:38.119Z,1.12
2019-02-24T21:54:07.263Z,1.16
2019-02-24T21:56:36.360Z,1.13
2019-02-24T21:59:05.534Z,1.08
2019-02-24T22:01:34.579Z,1.19
2019-02-24T22:04:03.703Z,1.14
2019-02-24T22:06:32.840Z,1.10
2019-02-24T22:09:01.930Z,0.73
2019-02-24T22:11:40.109Z,0.73
2019-02-24T22:14:09.244Z,0.72
2019-02-24T22:16:38.339Z,0.77
2019-02-24T22:19:07.449Z,0.94
2019-02-24T22:21:36.678Z,0.94
2019-02-24T22:24:05.781Z,1.09
2019-02-24T22:26:34.869Z,0.98
2019-02-24T22:29:04.016Z,0.99
2019-02-24T22:31:33.105Z,0.74
2019-02-24T22:34:02.252Z,0.78
2019-02-24T22:36:34.281Z,0.80
2019-02-24T22:39:03.524Z,0.89
2019-02-24T22:41:32.649Z,0.91
2019-02-24T22:44:01.788Z,0.88
2019-02-24T22:46:30.914Z,0.82
2019-02-24T22:49:00.031Z,0.81
2019-02-24T22:51:29.141Z,0.92
2019-02-24T22:53:58.288Z,0.88
2019-02-24T22:56:27.397Z,0.80
2019-02-24T22:58:56.498Z,0.76
2019-02-24T23:01:29.739Z,0.73
2019-02-24T23:04:10.172Z,0.66
2019-02-24T23:06:39.307Z,0.63
2019-02-24T23:09:12.665Z,0.77
2019-02-24T23:11:41.766Z,0.75
2019-02-24T23:14:10.898Z,0.78
2019-02-24T23:16:40.021Z,0.77
2019-02-24T23:19:18.130Z,0.75
2019-02-24T23:21:47.245Z,0.59
2019-02-24T23:24:18.810Z,0.26
2019-02-24T23:26:47.958Z,0.27
2019-02-24T23:29:17.064Z,0.53
2019-02-24T23:31:46.558Z,0.56
2019-02-24T23:34:15.708Z,0.46
2019-02-24T23:36:44.829Z,0.54
2019-02-24T23:39:16.483Z,0.50
2019-02-24T23:41:46.057Z,0.56
2019-02-24T23:44:15.182Z,0.44
2019-02-24T23:46:47.161Z,0.42
2019-02-24T23:49:16.155Z,0.44
2019-02-24T23:51:45.245Z,0.37
2019-02-24T23:54:14.359Z,0.17
2019-02-24T23:56:55.683Z,0.30
2019-02-24T23:59:28.132Z,0.33
